Time;durP1;ratioP1;P1;durP2;ratioP2;P2;SDS_P1;SDS_P2;PMS_P1;PMS_P2;Temp;Humidity;BMP_temperature;BMP_pressure;BME280_temperature;BME280_humidity;BME280_pressure;Samples;Min_cycle;Max_cycle;Signal;HPM_P1;HPM_P2
2023/05/15 00:01:19;;;;;;;22.92;12.48;;;;;;;14.12;100.00;101131.19;5044822;28;20075;-69
2023/05/15 00:03:45;;;;;;;24.33;13.48;;;;;;;14.10;100.00;101138.38;5041961;28;20041;-69
2023/05/15 00:06:10;;;;;;;20.70;12.30;;;;;;;14.05;100.00;101132.84;5031184;28;20043;-70
2023/05/15 00:08:36;;;;;;;25.65;13.95;;;;;;;14.01;100.00;101124.56;5047132;28;20048;-69
2023/05/15 00:11:01;;;;;;;23.85;15.02;;;;;;;13.96;100.00;101127.69;5030011;28;20576;-69
2023/05/15 00:13:27;;;;;;;20.40;13.70;;;;;;;13.93;100.00;101133.22;5029989;28;20057;-69
2023/05/15 00:15:52;;;;;;;19.13;13.15;;;;;;;13.89;100.00;101133.75;5029211;28;20037;-69
2023/05/15 00:18:18;;;;;;;22.85;13.60;;;;;;;13.86;100.00;101131.47;5032052;28;20044;-69
2023/05/15 00:20:43;;;;;;;20.80;13.45;;;;;;;13.83;100.00;101130.03;5047345;28;20394;-69
2023/05/15 00:23:09;;;;;;;23.58;13.68;;;;;;;13.84;100.00;101129.03;5015165;28;20044;-69
2023/05/15 00:25:34;;;;;;;24.33;13.30;;;;;;;13.80;100.00;101127.75;5029328;28;20613;-69
2023/05/15 00:28:00;;;;;;;19.13;13.45;;;;;;;13.70;100.00;101117.53;5046902;28;20040;-69
2023/05/15 00:30:28;;;;;;;22.58;13.10;;;;;;;13.66;100.00;101113.63;5031375;28;20371;-69
2023/05/15 00:32:53;;;;;;;20.05;12.70;;;;;;;13.59;100.00;101116.09;5045689;28;20044;-70
2023/05/15 00:35:19;;;;;;;22.17;14.57;;;;;;;13.56;100.00;101119.03;5028118;28;20033;-69
2023/05/15 00:37:44;;;;;;;25.67;14.00;;;;;;;13.53;100.00;101114.16;5029899;28;20023;-69
2023/05/15 00:40:16;;;;;;;20.83;12.90;;;;;;;13.49;100.00;101099.84;5031674;28;20051;-69
2023/05/15 00:42:42;;;;;;;22.15;13.93;;;;;;;13.47;100.00;101107.03;5046012;28;20036;-69
2023/05/15 00:45:10;;;;;;;19.40;12.70;;;;;;;13.45;100.00;101098.56;5015000;28;20045;-69
2023/05/15 00:47:37;;;;;;;29.27;15.68;;;;;;;13.43;100.00;101100.53;5026155;28;20040;-69
2023/05/15 00:50:03;;;;;;;25.05;13.70;;;;;;;13.39;100.00;101089.63;5042989;28;20128;-69
2023/05/15 00:52:29;;;;;;;26.08;13.70;;;;;;;13.37;100.00;101091.59;5030600;28;20029;-69
2023/05/15 00:54:55;;;;;;;17.60;12.98;;;;;;;13.36;100.00;101089.16;5027775;28;20083;-69
2023/05/15 00:57:22;;;;;;;18.88;12.38;;;;;;;13.36;100.00;101089.94;5032095;28;20048;-69
2023/05/15 00:59:50;;;;;;;21.30;13.80;;;;;;;13.37;100.00;101080.34;5036893;28;20039;-69
2023/05/15 01:02:17;;;;;;;19.05;13.02;;;;;;;13.39;100.00;101079.22;5046482;28;20025;-69
2023/05/15 01:04:42;;;;;;;18.05;11.30;;;;;;;13.39;100.00;101083.59;5041443;28;20123;-69
2023/05/15 01:07:08;;;;;;;20.73;12.25;;;;;;;13.38;100.00;101093.19;5042562;28;20472;-69
2023/05/15 01:09:35;;;;;;;15.38;11.15;;;;;;;13.35;100.00;101085.72;5027169;28;20037;-69
2023/05/15 01:12:01;;;;;;;24.52;13.18;;;;;;;13.34;100.00;101084.09;5028809;28;20067;-69
2023/05/15 01:14:27;;;;;;;19.38;12.23;;;;;;;13.31;100.00;101087.03;5026189;28;20499;-69
2023/05/15 01:16:52;;;;;;;20.35;12.68;;;;;;;13.30;100.00;101092.38;5024887;28;20041;-69
2023/05/15 01:19:18;;;;;;;19.67;12.35;;;;;;;13.29;100.00;101091.56;5028532;28;20049;-69
2023/05/15 01:22:13;;;;;;;16.45;11.73;;;;;;;13.30;100.00;101097.56;5044192;28;20049;-69
2023/05/15 01:24:51;;;;;;;17.00;11.07;;;;;;;13.30;100.00;101098.44;4935147;28;20147;-69
2023/05/15 01:27:42;;;;;;;19.88;11.40;;;;;;;13.24;100.00;101101.66;5043505;28;20072;-69
2023/05/15 01:30:13;;;;;;;22.88;14.63;;;;;;;13.16;100.00;101097.28;5043028;28;20041;-69
2023/05/15 01:33:10;;;;;;;25.55;14.48;;;;;;;13.01;100.00;101098.94;5021403;28;20034;-69
2023/05/15 01:36:00;;;;;;;21.48;12.57;;;;;;;12.91;100.00;101096.50;5042288;28;20045;-69
2023/05/15 01:38:41;;;;;;;22.58;14.57;;;;;;;12.82;100.00;101095.69;5042282;28;20037;-69
2023/05/15 01:41:21;;;;;;;27.35;14.57;;;;;;;12.76;100.00;101101.56;5008631;28;20040;-69
2023/05/15 01:43:50;;;;;;;28.85;14.38;;;;;;;12.76;100.00;101098.16;5026323;28;20045;-69
2023/05/15 01:46:20;;;;;;;26.60;14.57;;;;;;;12.66;100.00;101099.13;5011542;28;20066;-69
2023/05/15 01:48:48;;;;;;;31.52;14.50;;;;;;;12.66;100.00;101101.72;5021789;28;20400;-69
2023/05/15 01:51:16;;;;;;;30.67;15.32;;;;;;;12.61;100.00;101108.38;5026265;28;20017;-69
2023/05/15 01:53:42;;;;;;;23.20;14.68;;;;;;;12.55;100.00;101102.03;5026700;28;20059;-69
2023/05/15 01:56:12;;;;;;;28.13;17.50;;;;;;;12.51;100.00;101107.72;5012196;28;20437;-69
2023/05/15 01:58:40;;;;;;;31.23;18.08;;;;;;;12.45;100.00;101115.19;5023080;28;20606;-69
2023/05/15 02:01:07;;;;;;;28.92;17.05;;;;;;;12.44;100.00;101123.16;5044821;28;20506;-69
2023/05/15 02:03:34;;;;;;;27.42;16.30;;;;;;;12.41;100.00;101116.50;5026918;28;20041;-69
2023/05/15 02:06:03;;;;;;;27.95;15.85;;;;;;;12.35;100.00;101114.50;5046126;28;20056;-69
2023/05/15 02:08:30;;;;;;;25.13;16.98;;;;;;;12.29;100.00;101115.16;5012799;28;20131;-69
2023/05/15 02:10:58;;;;;;;28.55;16.38;;;;;;;12.22;100.00;101119.38;5007122;28;20068;-69
2023/05/15 02:13:25;;;;;;;30.48;16.60;;;;;;;12.21;100.00;101121.16;5013912;28;20048;-69
2023/05/15 02:15:51;;;;;;;28.50;17.88;;;;;;;12.23;100.00;101114.00;5031533;28;20025;-69
2023/05/15 02:18:17;;;;;;;31.27;18.67;;;;;;;12.19;100.00;101117.91;5027313;28;20541;-69
2023/05/15 02:20:43;;;;;;;35.17;17.90;;;;;;;12.24;100.00;101117.41;5048411;28;20029;-69
2023/05/15 02:23:08;;;;;;;28.60;17.58;;;;;;;12.21;100.00;101121.16;5013845;28;20049;-69
2023/05/15 02:25:48;;;;;;;33.95;18.20;;;;;;;12.16;100.00;101126.00;5049455;28;20052;-69
2023/05/15 02:28:25;;;;;;;29.88;18.52;;;;;;;12.14;100.00;101119.34;5030689;28;20087;-69
2023/05/15 02:30:59;;;;;;;39.08;18.95;;;;;;;12.15;100.00;101128.75;5031664;28;20067;-69
2023/05/15 02:33:43;;;;;;;31.88;17.33;;;;;;;12.13;100.00;101126.34;5013322;28;20037;-69
2023/05/15 02:36:13;;;;;;;33.50;19.25;;;;;;;12.08;100.00;101131.19;5026764;28;20033;-71
2023/05/15 02:38:51;;;;;;;35.60;19.92;;;;;;;12.12;100.00;101124.69;5028692;28;20203;-71
2023/05/15 02:41:18;;;;;;;40.15;19.90;;;;;;;11.99;100.00;101121.75;5041623;28;20064;-72
2023/05/15 02:43:47;;;;;;;36.88;19.60;;;;;;;11.96;100.00;101125.47;5015972;28;20036;-71
2023/05/15 02:46:14;;;;;;;33.85;17.83;;;;;;;11.93;100.00;101128.38;5036023;28;20072;-71
2023/05/15 02:48:41;;;;;;;35.38;18.17;;;;;;;11.86;100.00;101129.94;5006832;28;20140;-71
2023/05/15 02:51:07;;;;;;;41.38;19.38;;;;;;;11.85;100.00;101121.34;5045439;28;20394;-71
2023/05/15 02:53:37;;;;;;;38.03;18.92;;;;;;;11.85;100.00;101126.53;5029041;28;20506;-69
2023/05/15 02:56:03;;;;;;;35.42;20.05;;;;;;;11.86;100.00;101128.16;5014706;28;20030;-69
2023/05/15 02:58:29;;;;;;;37.55;19.08;;;;;;;11.85;100.00;101123.94;5029166;28;20041;-69
2023/05/15 03:00:55;;;;;;;41.88;20.23;;;;;;;11.85;100.00;101125.72;5030357;28;20064;-69
2023/05/15 03:03:20;;;;;;;35.35;20.13;;;;;;;11.84;100.00;101129.28;5045798;28;20395;-69
2023/05/15 03:05:46;;;;;;;39.05;20.67;;;;;;;11.79;100.00;101121.97;5046292;28;20036;-69
2023/05/15 03:08:11;;;;;;;39.75;19.85;;;;;;;11.82;100.00;101113.03;5028282;28;20044;-69
2023/05/15 03:10:37;;;;;;;41.22;21.98;;;;;;;11.82;100.00;101120.84;5030884;28;20048;-69
2023/05/15 03:13:02;;;;;;;37.95;20.48;;;;;;;11.79;100.00;101118.53;5043990;28;20032;-69
2023/05/15 03:15:28;;;;;;;36.40;19.00;;;;;;;11.77;100.00;101105.72;5014607;28;20029;-69
2023/05/15 03:17:53;;;;;;;39.70;20.52;;;;;;;11.73;100.00;101109.59;5031800;28;20033;-69
2023/05/15 03:20:19;;;;;;;35.92;20.25;;;;;;;11.69;100.00;101119.47;5031838;28;20025;-69
2023/05/15 03:22:44;;;;;;;36.53;20.50;;;;;;;11.64;100.00;101118.31;5030013;28;20498;-69
2023/05/15 03:25:10;;;;;;;32.92;18.90;;;;;;;11.63;100.00;101112.31;5044625;28;20573;-69
2023/05/15 03:27:36;;;;;;;32.90;19.42;;;;;;;11.63;100.00;101106.31;5047824;28;20033;-68
2023/05/15 03:30:03;;;;;;;37.72;19.25;;;;;;;11.64;100.00;101118.31;5013069;28;20118;-68
2023/05/15 03:32:29;;;;;;;35.20;19.15;;;;;;;11.63;100.00;101109.72;5024526;28;20025;-71
2023/05/15 03:34:54;;;;;;;30.55;17.52;;;;;;;11.65;100.00;101112.97;5046166;28;20044;-71
2023/05/15 03:37:20;;;;;;;33.63;18.20;;;;;;;11.69;100.00;101114.28;5048379;28;20039;-71
2023/05/15 03:39:47;;;;;;;33.80;18.45;;;;;;;11.63;100.00;101109.72;5026867;28;20064;-71
2023/05/15 03:42:13;;;;;;;34.08;18.10;;;;;;;11.60;100.00;101104.84;5029646;28;20025;-71
2023/05/15 03:44:40;;;;;;;30.75;18.08;;;;;;;11.59;100.00;101112.78;5042109;28;20416;-71
2023/05/15 03:47:05;;;;;;;27.98;17.52;;;;;;;11.59;100.00;101102.41;5013612;28;20463;-71
2023/05/15 03:49:31;;;;;;;29.27;18.60;;;;;;;11.60;100.00;101097.06;5029175;28;20049;-71
2023/05/15 03:51:56;;;;;;;27.05;16.48;;;;;;;11.61;100.00;101114.25;5029338;28;20037;-71
2023/05/15 03:54:22;;;;;;;31.27;17.50;;;;;;;11.61;100.00;101109.06;5031447;28;20045;-71
2023/05/15 03:56:51;;;;;;;32.45;16.98;;;;;;;11.59;100.00;101108.41;5047556;28;20040;-71
2023/05/15 03:59:17;;;;;;;30.77;16.65;;;;;;;11.58;100.00;101111.94;5026917;28;20037;-71
2023/05/15 04:01:43;;;;;;;33.15;17.35;;;;;;;11.53;100.00;101113.38;5046976;28;20021;-71
2023/05/15 04:04:08;;;;;;;37.88;18.10;;;;;;;11.48;100.00;101111.25;5047123;28;20727;-71
2023/05/15 04:06:33;;;;;;;28.95;17.02;;;;;;;11.46;100.00;101110.59;5028509;28;20037;-71
2023/05/15 04:08:59;;;;;;;33.15;17.55;;;;;;;11.43;100.00;101108.31;5045822;28;20044;-71
2023/05/15 04:11:25;;;;;;;30.83;18.38;;;;;;;11.40;100.00;101111.22;5045867;28;20041;-71
2023/05/15 04:13:51;;;;;;;37.10;18.38;;;;;;;11.38;100.00;101113.16;5045061;28;20575;-71
2023/05/15 04:16:16;;;;;;;32.55;18.10;;;;;;;11.38;100.00;101106.19;5027634;28;20029;-71
2023/05/15 04:18:42;;;;;;;37.47;19.40;;;;;;;11.39;100.00;101112.19;5046729;28;20041;-71
2023/05/15 04:21:07;;;;;;;33.00;18.00;;;;;;;11.39;100.00;101112.97;5046987;28;20028;-71
2023/05/15 04:23:32;;;;;;;34.83;19.25;;;;;;;11.36;100.00;101107.28;5028636;28;20085;-71
2023/05/15 04:25:58;;;;;;;37.63;19.92;;;;;;;11.36;100.00;101113.31;5028011;28;20044;-71
2023/05/15 04:28:23;;;;;;;42.60;20.80;;;;;;;11.35;100.00;101116.06;5046124;28;20053;-71
2023/05/15 04:30:49;;;;;;;39.80;21.35;;;;;;;11.33;100.00;101123.19;5026969;28;20449;-71
2023/05/15 04:33:15;;;;;;;39.03;20.92;;;;;;;11.28;100.00;101121.03;5029881;28;20449;-71
2023/05/15 04:35:40;;;;;;;38.85;21.25;;;;;;;11.32;100.00;101121.53;5027250;28;20479;-71
2023/05/15 04:38:06;;;;;;;42.03;22.45;;;;;;;11.32;100.00;101122.38;5011472;28;20160;-71
2023/05/15 04:40:31;;;;;;;47.33;24.85;;;;;;;11.32;100.00;101126.72;5027014;28;20037;-71
2023/05/15 04:42:56;;;;;;;50.63;24.95;;;;;;;11.38;100.00;101131.34;5027367;28;20041;-71
2023/05/15 04:45:23;;;;;;;48.30;24.90;;;;;;;11.40;100.00;101134.59;5046970;28;20036;-71
2023/05/15 04:47:49;;;;;;;50.30;26.38;;;;;;;11.46;100.00;101137.38;5024956;28;20040;-72
2023/05/15 04:50:15;;;;;;;47.70;25.02;;;;;;;11.46;100.00;101139.97;5044777;28;20037;-71
2023/05/15 04:52:41;;;;;;;45.58;25.67;;;;;;;11.44;100.00;101131.53;5026818;23;20044;-72
2023/05/15 04:55:08;;;;;;;49.47;26.63;;;;;;;11.44;100.00;101128.91;5017041;28;20049;-72
2023/05/15 04:57:33;;;;;;;50.28;26.55;;;;;;;11.40;100.00;101124.22;5023405;28;20036;-72
2023/05/15 04:59:59;;;;;;;54.65;28.77;;;;;;;11.39;100.00;101130.34;5007888;28;20103;-72
2023/05/15 05:02:24;;;;;;;53.92;26.98;;;;;;;11.44;100.00;101135.91;5026178;28;20038;-72
2023/05/15 05:04:50;;;;;;;56.40;29.35;;;;;;;11.37;100.00;101140.88;5026295;28;20477;-72
2023/05/15 05:07:15;;;;;;;49.70;27.85;;;;;;;11.40;100.00;101135.41;5026803;28;20036;-72
2023/05/15 05:09:41;;;;;;;55.80;27.35;;;;;;;11.45;100.00;101130.56;5005986;28;20399;-72
2023/05/15 05:12:08;;;;;;;49.92;27.02;;;;;;;11.44;100.00;101128.91;5002155;28;20029;-72
2023/05/15 05:14:33;;;;;;;55.72;29.40;;;;;;;11.48;100.00;101140.63;5024917;28;20044;-72
2023/05/15 05:16:59;;;;;;;56.75;28.90;;;;;;;11.58;100.00;101132.72;5009214;28;20549;-72
2023/05/15 05:19:26;;;;;;;51.95;27.17;;;;;;;11.54;100.00;101133.19;4983259;28;20038;-72
2023/05/15 05:21:52;;;;;;;50.63;28.02;;;;;;;11.61;100.00;101129.03;5008010;28;20037;-69
2023/05/15 05:24:18;;;;;;;54.33;28.00;;;;;;;11.64;100.00;101126.09;5007623;28;20045;-69
2023/05/15 05:26:44;;;;;;;56.58;28.10;;;;;;;11.73;100.00;101127.75;5021348;28;20029;-69
2023/05/15 05:29:09;;;;;;;54.22;26.85;;;;;;;11.81;100.00;101127.81;5022797;28;20492;-70
2023/05/15 05:31:35;;;;;;;50.28;29.02;;;;;;;11.78;100.00;101125.53;5022677;28;20042;-69
2023/05/15 05:34:00;;;;;;;58.30;29.88;;;;;;;11.92;100.00;101118.13;5023259;28;20042;-69
2023/05/15 05:36:26;;;;;;;54.83;30.50;;;;;;;12.03;100.00;101125.66;5008318;28;20034;-69
2023/05/15 05:38:51;;;;;;;59.00;29.42;;;;;;;12.00;100.00;101123.38;5008755;28;20099;-70
2023/05/15 05:41:17;;;;;;;55.05;28.67;;;;;;;12.01;100.00;101131.00;5027108;28;20036;-70
2023/05/15 05:43:42;;;;;;;53.20;28.60;;;;;;;12.01;100.00;101135.38;5003179;28;20115;-70
2023/05/15 05:46:08;;;;;;;52.53;28.20;;;;;;;11.97;100.00;101136.69;5028148;28;20021;-69
2023/05/15 05:48:33;;;;;;;50.58;26.00;;;;;;;11.96;100.00;101138.47;5023263;28;20045;-69
2023/05/15 05:50:58;;;;;;;54.35;28.20;;;;;;;12.01;100.00;101130.19;5010633;28;20107;-70
2023/05/15 05:53:24;;;;;;;49.85;26.00;;;;;;;12.03;100.00;101131.66;5025113;28;20053;-70
2023/05/15 05:55:50;;;;;;;47.55;25.55;;;;;;;12.12;100.00;101135.09;5029232;28;20029;-70
2023/05/15 05:58:17;;;;;;;57.53;28.17;;;;;;;12.25;100.00;101137.25;5011386;28;20053;-70
2023/05/15 06:00:43;;;;;;;53.75;28.67;;;;;;;12.39;100.00;101131.41;5013240;28;20048;-70
2023/05/15 06:03:08;;;;;;;57.05;28.27;;;;;;;12.40;98.75;101138.25;5026194;28;20475;-70
2023/05/15 06:05:34;;;;;;;49.17;26.35;;;;;;;12.38;98.82;101139.41;4988172;28;20121;-69
2023/05/15 06:08:01;;;;;;;48.63;26.80;;;;;;;12.48;97.77;101142.66;5011762;28;20415;-69
2023/05/15 06:10:26;;;;;;;52.70;28.50;;;;;;;12.48;97.82;101139.25;5027551;28;20395;-70
2023/05/15 06:12:52;;;;;;;47.47;26.83;;;;;;;12.71;97.61;101140.25;5028394;28;20033;-70
2023/05/15 06:15:17;;;;;;;49.05;26.20;;;;;;;12.80;97.37;101147.09;5011773;28;20033;-70
2023/05/15 06:17:43;;;;;;;51.25;28.15;;;;;;;12.90;97.61;101146.13;5025671;28;20381;-70
2023/05/15 06:20:08;;;;;;;51.78;26.38;;;;;;;12.90;95.48;101148.72;5025447;28;20454;-70
2023/05/15 06:22:38;;;;;;;50.65;27.70;;;;;;;12.85;94.84;101165.63;5010646;28;20039;-70
2023/05/15 06:25:04;;;;;;;52.33;27.92;;;;;;;12.80;94.68;101154.91;5004249;28;20034;-70
2023/05/15 06:27:30;;;;;;;53.53;27.88;;;;;;;12.82;94.82;101160.75;5010349;28;20035;-70
2023/05/15 06:29:56;;;;;;;48.72;27.25;;;;;;;13.18;92.74;101168.22;5011159;28;20491;-69
2023/05/15 06:32:21;;;;;;;44.97;26.50;;;;;;;13.55;92.60;101158.28;5028578;28;20032;-70
2023/05/15 06:34:47;;;;;;;48.78;25.42;;;;;;;13.88;88.67;101160.78;5024108;28;20068;-69
2023/05/15 06:37:12;;;;;;;50.85;26.20;;;;;;;14.16;86.84;101166.38;5007955;28;20033;-70
2023/05/15 06:39:38;;;;;;;51.58;26.85;;;;;;;14.24;86.51;101165.50;5011268;28;20464;-69
2023/05/15 06:42:04;;;;;;;49.88;26.98;;;;;;;14.22;86.02;101165.66;5012389;28;20507;-70
2023/05/15 06:44:30;;;;;;;49.80;25.52;;;;;;;14.09;87.22;101166.25;5011026;28;20125;-70
2023/05/15 06:46:56;;;;;;;49.50;26.30;;;;;;;14.00;87.32;101162.84;5029820;28;20037;-70
2023/05/15 06:49:21;;;;;;;45.88;25.13;;;;;;;13.80;87.02;101166.84;5026196;28;20041;-72
2023/05/15 06:51:47;;;;;;;50.80;27.80;;;;;;;13.80;86.60;101162.44;5027624;28;20135;-72
2023/05/15 06:54:13;;;;;;;48.15;25.40;;;;;;;13.84;86.40;101162.91;5006679;28;20604;-72
2023/05/15 06:56:38;;;;;;;48.95;27.13;;;;;;;13.72;86.33;101154.66;5013684;28;20071;-70
2023/05/15 06:59:04;;;;;;;48.60;26.75;;;;;;;13.73;85.98;101158.91;5028493;28;20041;-70
2023/05/15 07:01:30;;;;;;;50.08;25.98;;;;;;;13.98;85.39;101159.59;5028915;28;20033;-70
2023/05/15 07:03:56;;;;;;;40.25;24.85;;;;;;;14.10;85.33;101157.44;5010295;28;20056;-70
2023/05/15 07:06:21;;;;;;;42.75;24.67;;;;;;;14.11;84.57;101156.47;5021529;28;20019;-70
2023/05/15 07:08:47;;;;;;;51.63;26.55;;;;;;;14.27;84.24;101158.16;5027281;28;20578;-70
2023/05/15 07:11:13;;;;;;;57.05;28.55;;;;;;;14.44;83.05;101163.28;5028377;28;20435;-70
2023/05/15 07:13:38;;;;;;;49.08;27.55;;;;;;;14.46;83.42;101156.09;5015120;28;20072;-70
2023/05/15 07:16:04;;;;;;;51.28;26.60;;;;;;;14.61;82.59;101157.00;5008099;28;20033;-71
2023/05/15 07:18:29;;;;;;;45.08;25.98;;;;;;;15.35;79.24;101159.81;5022478;28;20093;-70
2023/05/15 07:20:55;;;;;;;58.78;28.35;;;;;;;15.85;77.19;101148.84;5010542;28;20612;-70
2023/05/15 07:23:20;;;;;;;46.60;26.27;;;;;;;15.91;74.87;101150.75;5012049;28;20052;-71
2023/05/15 07:25:46;;;;;;;42.92;24.15;;;;;;;16.18;73.95;101148.44;5008857;28;20022;-71
2023/05/15 07:28:11;;;;;;;42.28;24.05;;;;;;;16.28;73.60;101152.38;4998956;28;21730;-71
2023/05/15 07:30:37;;;;;;;43.45;24.15;;;;;;;16.24;73.19;101155.56;5025253;28;20527;-71
2023/05/15 07:33:02;;;;;;;43.92;25.35;;;;;;;16.52;72.33;101143.38;5024239;28;20038;-71
2023/05/15 07:35:28;;;;;;;45.53;26.33;;;;;;;17.06;70.77;101139.41;5011003;28;20071;-70
2023/05/15 07:37:53;;;;;;;44.50;25.83;;;;;;;17.37;69.00;101140.03;5009397;28;20041;-71
2023/05/15 07:40:19;;;;;;;47.58;25.70;;;;;;;17.55;67.14;101134.28;5009751;28;20087;-70
2023/05/15 07:42:44;;;;;;;41.97;26.10;;;;;;;17.82;66.35;101129.94;5021523;28;20037;-71
2023/05/15 07:45:10;;;;;;;49.38;26.20;;;;;;;18.15;65.53;101131.91;4993557;28;20057;-70
2023/05/15 07:47:35;;;;;;;45.95;24.70;;;;;;;18.20;65.99;101134.75;4991501;28;20122;-71
2023/05/15 07:50:01;;;;;;;45.85;25.13;;;;;;;18.08;64.22;101137.13;5005216;28;20049;-71
2023/05/15 07:52:26;;;;;;;47.78;26.63;;;;;;;18.08;62.81;101147.63;5012719;28;20033;-71
2023/05/15 07:54:52;;;;;;;42.58;25.50;;;;;;;18.45;63.66;101138.44;5025182;28;20040;-71
2023/05/15 07:57:17;;;;;;;43.42;27.30;;;;;;;18.35;63.18;101135.41;5028336;28;20033;-71
2023/05/15 07:59:43;;;;;;;43.13;27.15;;;;;;;18.26;62.03;101137.38;5024573;28;20045;-71
2023/05/15 08:02:08;;;;;;;44.35;25.52;;;;;;;17.95;62.46;101131.84;5012387;28;20048;-71
2023/05/15 08:04:34;;;;;;;42.25;24.67;;;;;;;17.78;62.88;101131.34;5024122;28;20058;-71
2023/05/15 08:06:59;;;;;;;43.17;26.05;;;;;;;17.78;62.92;101131.34;5007755;28;20057;-71
2023/05/15 08:09:25;;;;;;;45.50;26.55;;;;;;;18.11;62.79;101122.81;5027269;28;20078;-71
2023/05/15 08:11:50;;;;;;;41.50;24.80;;;;;;;18.88;61.87;101125.97;5023420;28;20033;-71
2023/05/15 08:14:16;;;;;;;43.65;27.73;;;;;;;18.84;61.19;101121.13;5019412;28;20041;-71
2023/05/15 08:16:41;;;;;;;45.05;26.88;;;;;;;18.80;60.86;101119.09;5024518;28;20616;-71
2023/05/15 08:19:06;;;;;;;40.03;24.40;;;;;;;18.49;61.34;101120.47;5011016;28;20416;-71
2023/05/15 08:21:32;;;;;;;43.15;26.35;;;;;;;18.08;60.36;101122.22;5004460;28;20479;-72
2023/05/15 08:23:59;;;;;;;41.33;22.42;;;;;;;18.45;60.87;101121.88;5004762;28;20064;-71
2023/05/15 08:26:24;;;;;;;34.55;22.00;;;;;;;18.93;59.32;101119.09;5006760;28;20030;-71
2023/05/15 08:28:50;;;;;;;32.25;21.30;;;;;;;19.11;57.08;101112.41;5010442;28;20050;-71
2023/05/15 08:31:15;;;;;;;38.75;23.38;;;;;;;18.94;56.50;101104.94;5025530;28;20037;-71
2023/05/15 08:33:41;;;;;;;36.38;22.23;;;;;;;18.97;56.55;101119.50;5024601;28;20587;-71
2023/05/15 08:36:07;;;;;;;32.72;20.40;;;;;;;19.46;55.86;101110.31;5009706;28;20033;-71
2023/05/15 08:38:32;;;;;;;28.52;18.38;;;;;;;20.02;55.51;101103.59;5008463;28;20095;-71
2023/05/15 08:41:04;;;;;;;33.42;19.63;;;;;;;20.48;54.14;101102.50;5019365;28;20052;-71
2023/05/15 08:43:34;;;;;;;33.97;21.00;;;;;;;20.68;53.60;101102.38;5021394;28;20041;-72
2023/05/15 08:46:01;;;;;;;33.55;20.02;;;;;;;20.71;54.15;101099.28;5007751;28;20021;-71
2023/05/15 08:48:32;;;;;;;33.80;22.77;;;;;;;20.53;52.05;101096.56;5003179;28;20056;-71
2023/05/15 08:50:58;;;;;;;35.15;21.85;;;;;;;20.73;53.26;101099.88;5026469;28;20060;-72
2023/05/15 08:53:24;;;;;;;36.38;21.38;;;;;;;20.92;50.96;101095.44;5001289;28;20037;-71
2023/05/15 08:55:50;;;;;;;36.05;21.08;;;;;;;21.07;50.82;101092.47;5007115;28;20369;-71
2023/05/15 08:58:16;;;;;;;38.00;20.88;;;;;;;20.56;50.27;101101.41;5004486;28;20452;-71
2023/05/15 09:00:41;;;;;;;26.67;16.88;;;;;;;20.72;50.68;101100.91;5023794;28;20295;-71
2023/05/15 09:03:13;;;;;;;27.65;17.35;;;;;;;21.24;50.37;101094.53;5022166;28;20045;-71
2023/05/15 09:05:39;;;;;;;36.17;19.98;;;;;;;21.24;49.94;101097.97;5004377;28;20242;-71
2023/05/15 09:08:07;;;;;;;30.95;17.52;;;;;;;21.20;50.40;101094.97;5001538;28;20029;-71
2023/05/15 09:10:33;;;;;;;28.52;19.02;;;;;;;21.07;49.21;101097.75;5021026;28;20369;-71
2023/05/15 09:13:01;;;;;;;27.75;16.98;;;;;;;21.37;49.33;101099.66;4989158;28;20484;-71
2023/05/15 09:15:26;;;;;;;29.15;18.42;;;;;;;21.48;48.47;101098.16;4990511;28;20033;-71
2023/05/15 09:17:53;;;;;;;29.13;17.13;;;;;;;21.62;48.55;101098.78;5008207;28;20088;-71
2023/05/15 09:20:24;;;;;;;26.92;18.50;;;;;;;21.55;48.79;101106.81;5025740;28;20369;-71
2023/05/15 09:22:50;;;;;;;35.20;19.77;;;;;;;21.30;46.49;101109.47;5026840;28;20373;-71
2023/05/15 09:25:33;;;;;;;29.98;18.50;;;;;;;21.30;47.44;101102.34;5012872;28;20030;-71
2023/05/15 09:27:59;;;;;;;28.58;18.30;;;;;;;21.32;47.51;101104.78;5010212;28;20122;-72
2023/05/15 09:30:26;;;;;;;30.90;18.55;;;;;;;21.54;47.09;101107.81;5025143;28;20018;-72
2023/05/15 09:32:53;;;;;;;31.63;17.30;;;;;;;21.46;48.12;101101.00;4984955;28;20053;-72
2023/05/15 09:35:39;;;;;;;27.00;17.42;;;;;;;21.66;47.30;101098.13;4986462;28;20024;-71
2023/05/15 09:38:10;;;;;;;27.85;16.60;;;;;;;21.73;46.30;101100.69;5000863;28;20527;-72
2023/05/15 09:40:38;;;;;;;28.52;16.35;;;;;;;21.37;44.63;101107.56;5026866;28;20055;-71
2023/05/15 09:43:03;;;;;;;22.40;14.35;;;;;;;21.75;44.87;101096.78;4991710;28;20302;-72
2023/05/15 09:45:30;;;;;;;22.17;14.95;;;;;;;21.91;43.13;101091.94;5026515;28;20435;-71
2023/05/15 09:47:58;;;;;;;27.67;15.88;;;;;;;21.64;44.57;101094.09;5023952;28;20038;-72
2023/05/15 09:50:32;;;;;;;25.83;15.55;;;;;;;21.48;44.13;101101.59;5003248;28;20057;-72
2023/05/15 09:52:58;;;;;;;26.88;16.55;;;;;;;21.00;45.13;101103.09;4988022;28;20026;-72
2023/05/15 09:55:24;;;;;;;26.08;15.55;;;;;;;21.45;45.61;101106.50;5008555;28;20026;-72
2023/05/15 09:58:28;;;;;;;22.58;15.23;;;;;;;21.67;43.97;101091.81;5024000;28;20530;-72
2023/05/15 10:00:53;;;;;;;21.20;13.65;;;;;;;22.03;44.52;101079.56;4948724;28;20127;-71
2023/05/15 10:03:19;;;;;;;24.17;14.18;;;;;;;22.08;43.94;101092.88;4946976;28;20067;-71
2023/05/15 10:05:45;;;;;;;21.35;14.15;;;;;;;22.27;43.20;101080.44;4978440;28;20074;-72
2023/05/15 10:08:11;;;;;;;20.60;14.57;;;;;;;22.17;42.73;101088.91;5008465;28;20048;-72
2023/05/15 10:10:37;;;;;;;21.60;15.43;;;;;;;22.10;44.39;101082.13;5011867;28;20081;-72
2023/05/15 10:13:04;;;;;;;22.05;15.07;;;;;;;21.99;42.32;101082.88;5012389;28;20041;-72
2023/05/15 10:15:30;;;;;;;21.60;14.45;;;;;;;21.84;42.51;101073.53;5000153;28;20033;-72
2023/05/15 10:17:56;;;;;;;21.63;14.77;;;;;;;21.70;42.80;101088.75;5026767;28;20564;-72
2023/05/15 10:20:23;;;;;;;26.63;15.10;;;;;;;21.76;42.63;101079.94;5027340;28;20032;-72
2023/05/15 10:22:51;;;;;;;20.45;14.15;;;;;;;21.82;43.21;101078.22;5008598;28;20076;-72
2023/05/15 10:25:40;;;;;;;18.60;12.00;;;;;;;21.84;42.22;101076.16;4995528;28;20056;-72
2023/05/15 10:28:08;;;;;;;20.13;12.00;;;;;;;21.99;42.82;101072.31;5024564;28;20314;-72
2023/05/15 10:30:35;;;;;;;23.73;14.25;;;;;;;21.99;42.84;101077.59;5009449;28;20050;-72
2023/05/15 10:33:03;;;;;;;26.02;15.55;;;;;;;21.75;43.54;101070.38;5009232;28;20366;-72
2023/05/15 10:35:29;;;;;;;18.52;11.52;;;;;;;21.85;44.60;101069.03;5010818;28;20038;-72
2023/05/15 10:37:56;;;;;;;16.70;11.27;;;;;;;22.08;42.14;101061.22;5007753;28;20064;-72
2023/05/15 10:40:23;;;;;;;20.23;10.80;;;;;;;22.28;41.79;101068.03;5006352;28;20041;-72
2023/05/15 10:42:49;;;;;;;12.38;9.90;;;;;;;22.49;41.10;101061.41;5009306;28;20111;-72
2023/05/15 10:45:15;;;;;;;19.08;11.20;;;;;;;22.25;40.05;101057.91;5028020;28;20495;-73
2023/05/15 10:47:42;;;;;;;15.55;9.90;;;;;;;22.30;39.83;101056.25;5015506;28;20025;-72
2023/05/15 10:50:09;;;;;;;16.75;10.13;;;;;;;22.22;39.84;101059.16;4993402;28;20693;-72
2023/05/15 10:52:35;;;;;;;13.55;9.38;;;;;;;22.28;40.08;101050.38;5008104;28;20040;-72
2023/05/15 10:55:03;;;;;;;15.20;8.98;;;;;;;22.31;40.85;101052.56;5006148;28;20050;-73
2023/05/15 10:57:28;;;;;;;16.05;11.70;;;;;;;22.60;40.82;101044.75;5020764;28;20037;-72
2023/05/15 10:59:54;;;;;;;14.32;10.93;;;;;;;22.39;41.48;101046.13;4997964;28;20041;-72
2023/05/15 11:02:28;;;;;;;16.42;10.80;;;;;;;22.50;41.11;101047.16;5012789;28;20522;-72
2023/05/15 11:04:58;;;;;;;18.88;11.77;;;;;;;22.33;42.11;101047.03;5022941;28;20060;-73